createdAt,value
2018-05-25T00:01:17.724Z,85.20
2018-05-25T00:03:45.948Z,85.40
2018-05-25T00:06:14.965Z,85.20
2018-05-25T00:08:43.174Z,85.10
2018-05-25T00:11:11.404Z,85.20
2018-05-25T00:13:39.688Z,85.40
2018-05-25T00:16:07.917Z,85.30
2018-05-25T00:18:36.141Z,85.40
2018-05-25T00:21:04.369Z,85.30
2018-05-25T00:23:32.684Z,85.20
2018-05-25T00:26:00.920Z,85.00
2018-05-25T00:28:29.151Z,84.90
2018-05-25T00:30:57.409Z,85.00
2018-05-25T00:33:25.621Z,85.00
2018-05-25T00:35:53.857Z,85.10
2018-05-25T00:38:22.141Z,85.10
2018-05-25T00:40:50.361Z,85.60
2018-05-25T00:43:19.109Z,86.20
2018-05-25T00:45:47.360Z,87.10
2018-05-25T00:48:16.362Z,87.80
2018-05-25T00:50:44.585Z,87.70
2018-05-25T00:53:12.811Z,88.30
2018-05-25T00:55:41.095Z,87.40
2018-05-25T00:58:09.301Z,87.40
2018-05-25T01:00:37.524Z,87.40
2018-05-25T01:03:06.892Z,87.50
2018-05-25T01:05:35.216Z,87.50
2018-05-25T01:08:03.438Z,87.20
2018-05-25T01:10:31.660Z,88.20
2018-05-25T01:13:00.041Z,90.00
2018-05-25T01:15:28.264Z,90.50
2018-05-25T01:17:56.505Z,90.70
2018-05-25T01:20:24.782Z,90.30
2018-05-25T01:22:53.036Z,90.50
2018-05-25T01:25:21.298Z,90.80
2018-05-25T01:27:50.296Z,91.00
2018-05-25T01:30:20.187Z,91.00
2018-05-25T01:32:48.422Z,91.00
2018-05-25T01:35:16.640Z,91.50
2018-05-25T01:37:44.877Z,92.00
2018-05-25T01:40:13.487Z,91.70
2018-05-25T01:42:41.700Z,91.30
2018-05-25T01:45:09.947Z,90.90
2018-05-25T01:47:38.177Z,91.30
2018-05-25T01:50:06.641Z,91.80
2018-05-25T01:52:34.920Z,91.90
2018-05-25T01:55:03.141Z,91.40
2018-05-25T01:57:31.364Z,91.10
2018-05-25T01:59:59.588Z,91.00
2018-05-25T02:02:27.834Z,90.80
2018-05-25T02:04:56.095Z,90.50
2018-05-25T02:07:24.336Z,90.20
2018-05-25T02:09:53.325Z,90.20
2018-05-25T02:12:21.561Z,90.20
2018-05-25T02:14:49.784Z,90.50
2018-05-25T02:17:18.788Z,90.40
2018-05-25T02:19:47.018Z,90.30
2018-05-25T02:22:15.336Z,90.30
2018-05-25T02:24:43.616Z,90.20
2018-05-25T02:27:11.866Z,90.30
2018-05-25T02:29:40.096Z,90.40
2018-05-25T02:32:08.336Z,90.40
2018-05-25T02:34:37.319Z,90.50
2018-05-25T02:37:06.336Z,90.50
2018-05-25T02:39:34.544Z,90.50
2018-05-25T02:42:02.784Z,90.70
2018-05-25T02:44:30.997Z,90.80
2018-05-25T02:46:59.222Z,90.80
2018-05-25T02:49:27.471Z,90.80
2018-05-25T02:51:55.672Z,90.70
2018-05-25T02:54:24.769Z,90.50
2018-05-25T02:56:53.044Z,90.40
2018-05-25T02:59:21.272Z,90.40
2018-05-25T03:01:49.599Z,90.70
2018-05-25T03:04:17.844Z,91.10
2018-05-25T03:06:46.057Z,92.70
2018-05-25T03:09:14.381Z,92.50
2018-05-25T03:11:42.600Z,92.00
2018-05-25T03:14:10.835Z,92.40
2018-05-25T03:16:39.057Z,92.00
2018-05-25T03:19:07.292Z,92.00
2018-05-25T03:21:35.520Z,91.70
2018-05-25T03:24:03.761Z,92.10
2018-05-25T03:26:32.769Z,92.30
2018-05-25T03:29:01.057Z,92.30
2018-05-25T03:31:29.282Z,92.40
2018-05-25T03:33:57.506Z,92.60
2018-05-25T03:36:25.724Z,92.70
2018-05-25T03:38:53.949Z,93.00
2018-05-25T03:41:22.168Z,93.20
2018-05-25T03:43:50.502Z,93.30
2018-05-25T03:46:18.725Z,93.40
2018-05-25T03:48:46.957Z,93.40
2018-05-25T03:51:15.172Z,93.50
2018-05-25T03:53:44.920Z,92.90
2018-05-25T03:56:13.904Z,92.70
2018-05-25T03:58:54.848Z,92.80
2018-05-25T04:01:35.006Z,92.80
2018-05-25T04:04:03.223Z,92.90
2018-05-25T04:06:31.440Z,92.80
2018-05-25T04:08:59.671Z,92.50
2018-05-25T04:11:27.890Z,92.20
2018-05-25T04:13:56.188Z,92.30
2018-05-25T04:16:24.400Z,92.30
2018-05-25T04:18:52.632Z,92.10
2018-05-25T04:21:20.856Z,91.90
2018-05-25T04:23:49.096Z,91.80
2018-05-25T04:26:18.381Z,91.70
2018-05-25T04:28:46.606Z,91.70
2018-05-25T04:31:14.832Z,91.60
2018-05-25T04:33:43.241Z,91.50
2018-05-25T04:36:11.461Z,91.50
2018-05-25T04:38:39.700Z,91.50
2018-05-25T04:41:07.919Z,91.50
2018-05-25T04:43:36.128Z,91.50
2018-05-25T04:46:05.125Z,91.60
2018-05-25T04:48:34.128Z,91.70
2018-05-25T04:51:02.366Z,91.70
2018-05-25T04:53:30.581Z,91.70
2018-05-25T04:55:58.948Z,91.90
2018-05-25T04:58:27.957Z,92.00
2018-05-25T05:00:56.231Z,92.00
2018-05-25T05:03:25.000Z,92.00
2018-05-25T05:05:53.993Z,92.20
2018-05-25T05:08:22.268Z,92.20
2018-05-25T05:10:51.271Z,92.20
2018-05-25T05:13:19.481Z,92.10
2018-05-25T05:15:47.713Z,92.10
2018-05-25T05:18:16.708Z,92.10
2018-05-25T05:20:44.960Z,92.10
2018-05-25T05:23:13.349Z,92.00
2018-05-25T05:25:42.333Z,92.70
2018-05-25T05:28:11.461Z,93.00
2018-05-25T05:30:39.706Z,93.00
2018-05-25T05:33:08.709Z,93.00
2018-05-25T05:35:37.711Z,92.80
2018-05-25T05:38:06.008Z,92.80
2018-05-25T05:40:34.230Z,92.40
2018-05-25T05:43:03.339Z,92.00
2018-05-25T05:45:32.360Z,91.80
2018-05-25T05:48:00.581Z,91.80
2018-05-25T05:50:28.904Z,91.60
2018-05-25T05:52:57.881Z,91.20
2018-05-25T05:55:26.892Z,90.90
2018-05-25T05:57:55.169Z,90.90
2018-05-25T06:00:23.364Z,90.60
2018-05-25T06:02:51.585Z,90.50
2018-05-25T06:05:19.813Z,90.40
2018-05-25T06:07:48.029Z,90.30
2018-05-25T06:10:16.269Z,90.20
2018-05-25T06:12:44.489Z,90.50
2018-05-25T06:15:13.489Z,90.30
2018-05-25T06:17:42.490Z,90.30
2018-05-25T06:20:11.692Z,90.00
2018-05-25T06:22:39.913Z,89.90
2018-05-25T06:25:08.158Z,89.30
2018-05-25T06:27:36.409Z,90.10
2018-05-25T06:30:05.712Z,89.50
2018-05-25T06:32:34.728Z,89.00
2018-05-25T06:35:02.944Z,89.00
2018-05-25T06:37:31.264Z,88.50
2018-05-25T06:39:59.509Z,88.00
2018-05-25T06:42:27.753Z,87.80
2018-05-25T06:44:55.985Z,87.90
2018-05-25T06:47:24.277Z,87.90
2018-05-25T06:49:52.488Z,87.80
2018-05-25T06:52:20.716Z,87.80
2018-05-25T06:54:48.933Z,87.80
2018-05-25T06:57:17.180Z,88.80
2018-05-25T06:59:45.421Z,88.80
2018-05-25T07:02:14.418Z,87.10
2018-05-25T07:04:43.494Z,86.70
2018-05-25T07:07:11.754Z,86.50
2018-05-25T07:09:39.982Z,87.60
2018-05-25T07:12:08.225Z,87.80
2018-05-25T07:14:37.207Z,87.80
2018-05-25T07:17:05.569Z,87.80
2018-05-25T07:19:33.740Z,87.50
2018-05-25T07:22:01.970Z,87.50
2018-05-25T07:24:30.185Z,86.80
2018-05-25T07:26:58.424Z,85.90
2018-05-25T07:29:26.653Z,85.00
2018-05-25T07:31:54.892Z,84.30
2018-05-25T07:34:23.104Z,84.40
2018-05-25T07:36:51.354Z,83.90
2018-05-25T07:39:19.593Z,83.60
2018-05-25T07:41:47.822Z,83.10
2018-05-25T07:44:16.032Z,82.70
2018-05-25T07:46:45.132Z,82.40
2018-05-25T07:49:13.357Z,82.40
2018-05-25T07:51:41.592Z,82.20
2018-05-25T07:54:09.812Z,82.10
2018-05-25T07:56:38.052Z,81.40
2018-05-25T07:59:06.418Z,82.20
2018-05-25T08:01:35.415Z,81.60
2018-05-25T08:04:03.647Z,81.60
2018-05-25T08:06:31.957Z,81.90
2018-05-25T08:09:00.233Z,81.70
2018-05-25T08:11:28.464Z,80.40
2018-05-25T08:13:58.228Z,79.90
2018-05-25T08:16:26.523Z,79.80
2018-05-25T08:18:54.732Z,80.10
2018-05-25T08:21:22.961Z,79.60
2018-05-25T08:23:51.191Z,79.60
2018-05-25T08:26:19.482Z,79.80
2018-05-25T08:28:48.492Z,79.30
2018-05-25T08:31:16.721Z,79.30
2018-05-25T08:33:44.957Z,78.70
2018-05-25T08:36:13.180Z,78.40
2018-05-25T08:38:41.486Z,78.10
2018-05-25T08:41:09.703Z,78.30
2018-05-25T08:43:37.949Z,77.40
2018-05-25T08:46:06.208Z,77.30
2018-05-25T08:48:34.440Z,76.10
2018-05-25T08:51:02.687Z,75.70
2018-05-25T08:53:30.937Z,74.90
2018-05-25T08:55:59.197Z,75.20
2018-05-25T08:58:28.205Z,75.70
2018-05-25T09:00:56.445Z,75.70
2018-05-25T09:03:24.673Z,75.40
2018-05-25T09:05:52.937Z,76.30
2018-05-25T09:08:21.328Z,76.10
2018-05-25T09:10:50.155Z,75.80
2018-05-25T09:13:18.412Z,75.80
2018-05-25T09:15:46.632Z,75.10
2018-05-25T09:18:15.627Z,74.70
2018-05-25T09:20:44.633Z,74.60
2018-05-25T09:23:13.133Z,74.60
2018-05-25T09:25:41.357Z,74.80
2018-05-25T09:28:09.620Z,74.60
2018-05-25T09:30:38.837Z,73.90
2018-05-25T09:33:07.843Z,74.70
2018-05-25T09:35:36.825Z,75.90
2018-05-25T09:38:05.828Z,76.00
2018-05-25T09:40:34.841Z,76.70
2018-05-25T09:43:03.114Z,76.60
2018-05-25T09:45:31.327Z,78.20
2018-05-25T09:47:59.565Z,79.80
2018-05-25T09:50:27.781Z,81.30
2018-05-25T09:52:56.019Z,81.20
2018-05-25T09:55:24.240Z,80.50
2018-05-25T09:57:57.328Z,79.10
2018-05-25T10:00:25.545Z,78.10
2018-05-25T10:02:53.765Z,77.40
2018-05-25T10:05:21.992Z,76.70
2018-05-25T10:07:50.276Z,76.50
2018-05-25T10:10:18.509Z,76.70
2018-05-25T10:12:46.817Z,76.50
2018-05-25T10:15:15.099Z,76.30
2018-05-25T10:17:43.321Z,76.50
2018-05-25T10:20:11.780Z,76.60
2018-05-25T10:22:40.014Z,75.70
2018-05-25T10:25:09.005Z,74.60
2018-05-25T10:27:37.986Z,74.40
2018-05-25T10:30:06.652Z,74.30
2018-05-25T10:32:34.877Z,74.00
2018-05-25T10:35:03.124Z,73.40
2018-05-25T10:37:32.834Z,72.70
2018-05-25T10:40:01.879Z,72.40
2018-05-25T10:42:30.159Z,72.30
2018-05-25T10:44:58.388Z,72.20
2018-05-25T10:47:27.399Z,73.90
2018-05-25T10:49:55.679Z,73.90
2018-05-25T10:52:23.896Z,74.60
2018-05-25T10:54:53.662Z,74.60
2018-05-25T10:57:21.879Z,74.60
2018-05-25T10:59:50.104Z,74.50
2018-05-25T11:02:18.349Z,73.90
2018-05-25T11:04:46.588Z,73.50
2018-05-25T11:07:14.796Z,73.50
2018-05-25T11:09:43.110Z,73.50
2018-05-25T11:12:11.332Z,73.60
2018-05-25T11:14:39.650Z,73.00
2018-05-25T11:17:07.873Z,72.90
2018-05-25T11:19:36.106Z,72.60
2018-05-25T11:22:04.407Z,72.80
2018-05-25T11:24:32.633Z,73.10
2018-05-25T11:27:01.728Z,72.60
2018-05-25T11:29:29.908Z,72.60
2018-05-25T11:31:58.927Z,72.50
2018-05-25T11:34:27.157Z,72.30
2018-05-25T11:36:55.459Z,71.70
2018-05-25T11:39:23.701Z,72.00
2018-05-25T11:41:52.008Z,71.50
2018-05-25T11:44:20.254Z,70.80
2018-05-25T11:46:48.581Z,70.30
2018-05-25T11:49:16.958Z,70.80
2018-05-25T11:51:45.203Z,71.70
2018-05-25T11:54:14.178Z,71.70
2018-05-25T11:56:42.413Z,71.20
2018-05-25T11:59:10.663Z,68.80
2018-05-25T12:01:38.906Z,70.10
2018-05-25T12:04:07.114Z,70.50
2018-05-25T12:06:35.376Z,70.30
2018-05-25T12:09:05.401Z,70.50
2018-05-25T12:11:33.676Z,70.40
2018-05-25T12:14:01.920Z,69.20
2018-05-25T12:16:30.260Z,69.90
2018-05-25T12:18:58.631Z,69.80
2018-05-25T12:21:26.884Z,69.80
2018-05-25T12:23:55.869Z,69.10
2018-05-25T12:26:24.868Z,69.20
2018-05-25T12:28:53.112Z,69.20
2018-05-25T12:31:21.352Z,68.90
2018-05-25T12:33:49.576Z,68.70
2018-05-25T12:36:18.593Z,67.80
2018-05-25T12:38:46.822Z,67.70
2018-05-25T12:41:15.849Z,67.00
2018-05-25T12:43:44.128Z,67.10
2018-05-25T12:46:12.404Z,67.80
2018-05-25T12:48:40.626Z,66.50
2018-05-25T12:51:08.857Z,67.30
2018-05-25T12:53:37.130Z,68.10
2018-05-25T12:56:05.372Z,68.00
2018-05-25T12:58:33.584Z,68.10
2018-05-25T13:01:01.821Z,68.20
2018-05-25T13:03:30.464Z,68.10
2018-05-25T13:05:58.898Z,68.50
2018-05-25T13:08:27.890Z,67.20
2018-05-25T13:10:56.872Z,67.20
2018-05-25T13:13:25.889Z,67.60
2018-05-25T13:15:54.112Z,67.60
2018-05-25T13:18:22.365Z,67.70
2018-05-25T13:20:50.633Z,67.40
2018-05-25T13:23:18.888Z,66.70
2018-05-25T13:25:47.169Z,66.90
2018-05-25T13:28:15.388Z,66.80
2018-05-25T13:30:43.677Z,66.60
2018-05-25T13:33:11.938Z,65.50
2018-05-25T13:35:40.170Z,65.70
2018-05-25T13:38:08.429Z,65.00
2018-05-25T13:40:36.633Z,66.10
2018-05-25T13:43:05.257Z,65.30
2018-05-25T13:45:33.641Z,65.00
2018-05-25T13:48:01.874Z,65.90
2018-05-25T13:50:30.084Z,65.60
2018-05-25T13:52:58.319Z,65.70
2018-05-25T13:55:26.536Z,66.10
2018-05-25T13:57:54.768Z,65.10
2018-05-25T14:00:23.029Z,64.30
2018-05-25T14:02:52.238Z,64.30
2018-05-25T14:05:20.558Z,63.10
2018-05-25T14:07:49.560Z,61.70
2018-05-25T14:10:18.088Z,61.60
2018-05-25T14:12:46.361Z,60.90
2018-05-25T14:15:14.628Z,62.10
2018-05-25T14:17:42.900Z,60.70
2018-05-25T14:20:11.440Z,59.10
2018-05-25T14:22:39.675Z,59.80
2018-05-25T14:25:07.897Z,59.70
2018-05-25T14:27:36.203Z,58.70
2018-05-25T14:30:04.693Z,57.90
2018-05-25T14:32:32.897Z,57.30
2018-05-25T14:35:01.097Z,57.50
2018-05-25T14:37:29.321Z,56.90
2018-05-25T14:39:57.529Z,57.20
2018-05-25T14:42:25.831Z,58.00
2018-05-25T14:44:54.138Z,57.20
2018-05-25T14:47:22.365Z,57.10
2018-05-25T14:49:50.581Z,56.10
2018-05-25T14:52:19.566Z,57.50
2018-05-25T14:54:48.569Z,54.40
2018-05-25T14:57:16.799Z,54.40
2018-05-25T14:59:45.004Z,53.10
2018-05-25T15:02:14.068Z,44.60
2018-05-25T15:04:42.981Z,42.50
2018-05-25T15:07:11.997Z,42.70
2018-05-25T15:09:40.254Z,42.60
2018-05-25T15:12:08.438Z,43.30
2018-05-25T15:14:37.441Z,36.20
2018-05-25T15:17:06.514Z,36.00
2018-05-25T15:19:35.487Z,32.90
2018-05-25T15:22:03.997Z,32.80
2018-05-25T15:24:32.210Z,30.80
2018-05-25T15:27:00.440Z,31.90
2018-05-25T15:29:29.440Z,29.90
2018-05-25T15:31:58.499Z,28.90
2018-05-25T15:34:26.653Z,28.90
2018-05-25T15:36:54.864Z,28.20
2018-05-25T15:39:23.852Z,28.20
2018-05-25T15:41:52.844Z,28.90
2018-05-25T15:44:21.177Z,28.90
2018-05-25T15:46:49.390Z,32.10
2018-05-25T15:49:18.379Z,36.90
2018-05-25T15:51:46.595Z,36.80
2018-05-25T15:54:14.861Z,39.40
2018-05-25T15:56:43.073Z,40.70
2018-05-25T15:59:11.310Z,42.20
2018-05-25T16:01:40.484Z,45.10
2018-05-25T16:04:08.705Z,45.00
2018-05-25T16:06:36.936Z,45.50
2018-05-25T16:09:05.945Z,46.20
2018-05-25T16:11:34.916Z,46.30
2018-05-25T16:14:04.324Z,47.60
2018-05-25T16:16:33.303Z,48.40
2018-05-25T16:19:01.533Z,48.40
2018-05-25T16:21:29.786Z,48.00
2018-05-25T16:23:58.064Z,48.40
2018-05-25T16:26:26.265Z,48.30
2018-05-25T16:28:54.530Z,47.90
2018-05-25T16:31:23.464Z,48.60
2018-05-25T16:33:53.360Z,48.70
2018-05-25T16:36:21.572Z,48.70
2018-05-25T16:38:50.536Z,48.60
2018-05-25T16:41:18.759Z,48.60
2018-05-25T16:43:47.004Z,49.30
2018-05-25T16:46:15.230Z,50.50
2018-05-25T16:48:43.425Z,50.50
2018-05-25T16:51:11.631Z,49.60
2018-05-25T16:53:39.941Z,49.50
2018-05-25T16:56:08.354Z,49.50
2018-05-25T16:58:36.576Z,49.90
2018-05-25T17:01:05.601Z,50.70
2018-05-25T17:03:33.829Z,50.70
2018-05-25T17:06:02.820Z,51.00
2018-05-25T17:08:31.821Z,50.80
2018-05-25T17:11:00.797Z,50.70
2018-05-25T17:13:29.108Z,50.70
2018-05-25T17:15:58.066Z,50.70
2018-05-25T17:18:26.287Z,50.60
2018-05-25T17:20:54.493Z,50.60
2018-05-25T17:23:23.734Z,50.70
2018-05-25T17:25:52.714Z,50.90
2018-05-25T17:28:21.767Z,51.30
2018-05-25T17:30:49.978Z,51.30
2018-05-25T17:33:18.180Z,51.60
2018-05-25T17:35:46.377Z,51.90
2018-05-25T17:38:14.599Z,51.50
2018-05-25T17:40:43.569Z,51.60
2018-05-25T17:43:11.960Z,51.60
2018-05-25T17:45:40.157Z,51.70
2018-05-25T17:48:09.140Z,52.70
2018-05-25T17:50:37.438Z,52.60
2018-05-25T17:53:05.663Z,52.80
2018-05-25T17:55:33.888Z,53.00
2018-05-25T17:58:02.081Z,53.40
2018-05-25T18:00:30.314Z,53.60
2018-05-25T18:02:59.285Z,54.30
2018-05-25T18:05:27.519Z,54.20
2018-05-25T18:07:55.706Z,54.60
2018-05-25T18:10:23.979Z,54.70
2018-05-25T18:12:52.919Z,55.30
2018-05-25T18:15:21.121Z,55.30
2018-05-25T18:17:49.381Z,55.40
2018-05-25T18:20:17.657Z,54.40
2018-05-25T18:22:45.869Z,53.80
2018-05-25T18:25:14.107Z,53.50
2018-05-25T18:27:42.333Z,53.60
2018-05-25T18:30:10.992Z,53.50
2018-05-25T18:32:39.198Z,53.80
2018-05-25T18:35:07.509Z,53.90
2018-05-25T18:37:35.775Z,54.40
2018-05-25T18:40:04.537Z,54.70
2018-05-25T18:42:32.752Z,54.70
2018-05-25T18:45:00.983Z,54.90
2018-05-25T18:47:29.196Z,55.00
2018-05-25T18:49:57.456Z,55.70
2018-05-25T18:52:25.652Z,56.00
2018-05-25T18:54:53.928Z,56.30
2018-05-25T18:57:22.906Z,58.20
2018-05-25T18:59:51.171Z,57.80
2018-05-25T19:02:19.374Z,58.40
2018-05-25T19:04:47.679Z,59.00
2018-05-25T19:07:15.886Z,59.30
2018-05-25T19:09:44.170Z,59.60
2018-05-25T19:12:12.410Z,60.00
2018-05-25T19:14:40.628Z,60.30
2018-05-25T19:17:09.620Z,60.80
2018-05-25T19:19:38.604Z,60.90
2018-05-25T19:22:07.608Z,61.50
2018-05-25T19:24:35.851Z,61.40
2018-05-25T19:27:04.180Z,61.90
2018-05-25T19:29:32.396Z,62.40
2018-05-25T19:32:00.732Z,62.60
2018-05-25T19:34:28.980Z,62.90
2018-05-25T19:36:57.966Z,63.30
2018-05-25T19:39:26.226Z,63.30
2018-05-25T19:41:54.445Z,63.70
2018-05-25T19:44:22.713Z,63.80
2018-05-25T19:46:51.688Z,64.20
2018-05-25T19:49:20.676Z,64.40
2018-05-25T19:51:49.729Z,64.60
2018-05-25T19:54:18.032Z,64.60
2018-05-25T19:56:46.257Z,64.80
2018-05-25T19:59:14.554Z,65.10
2018-05-25T20:01:42.816Z,65.10
2018-05-25T20:04:11.030Z,65.00
2018-05-25T20:06:39.278Z,65.10
2018-05-25T20:09:07.514Z,65.20
2018-05-25T20:11:35.751Z,65.10
2018-05-25T20:14:04.056Z,65.40
2018-05-25T20:16:32.330Z,65.70
2018-05-25T20:19:00.537Z,65.90
2018-05-25T20:21:28.764Z,65.70
2018-05-25T20:23:57.770Z,65.70
2018-05-25T20:26:26.757Z,65.40
2018-05-25T20:28:55.746Z,65.30
2018-05-25T20:31:24.028Z,65.30
2018-05-25T20:33:53.018Z,65.30
2018-05-25T20:36:21.411Z,65.30
2018-05-25T20:38:49.671Z,65.30
2018-05-25T20:41:18.726Z,65.50
2018-05-25T20:43:46.943Z,65.50
2018-05-25T20:46:16.159Z,65.60
2018-05-25T20:48:44.344Z,65.60
2018-05-25T20:51:12.584Z,66.10
2018-05-25T20:53:41.556Z,65.40
2018-05-25T20:56:09.772Z,65.30
2018-05-25T20:58:37.991Z,65.40
2018-05-25T21:01:06.241Z,65.40
2018-05-25T21:03:34.533Z,65.40
2018-05-25T21:06:02.869Z,65.60
2018-05-25T21:08:31.081Z,65.70
2018-05-25T21:10:59.334Z,65.70
2018-05-25T21:13:27.603Z,65.70
2018-05-25T21:15:55.872Z,65.60
2018-05-25T21:18:24.089Z,65.80
2018-05-25T21:20:52.308Z,65.80
2018-05-25T21:23:21.290Z,65.80
2018-05-25T21:25:49.597Z,65.70
2018-05-25T21:28:17.875Z,66.60
2018-05-25T21:30:46.143Z,65.70
2018-05-25T21:33:14.374Z,65.80
2018-05-25T21:35:43.372Z,65.80
2018-05-25T21:38:11.612Z,65.80
2018-05-25T21:40:39.832Z,66.20
2018-05-25T21:43:08.337Z,66.40
2018-05-25T21:45:36.579Z,66.40
2018-05-25T21:48:04.821Z,66.70
2018-05-25T21:50:33.259Z,67.30
2018-05-25T21:53:02.257Z,67.70
2018-05-25T21:55:30.646Z,67.70
2018-05-25T21:57:58.934Z,67.70
2018-05-25T22:00:30.100Z,67.80
2018-05-25T22:02:58.373Z,67.70
2018-05-25T22:05:26.580Z,67.70
2018-05-25T22:07:54.932Z,67.60
2018-05-25T22:10:23.149Z,67.60
2018-05-25T22:12:52.243Z,67.80
2018-05-25T22:15:21.236Z,67.90
2018-05-25T22:17:50.312Z,67.90
2018-05-25T22:20:18.663Z,67.90
2018-05-25T22:22:46.893Z,67.70
2018-05-25T22:25:16.080Z,68.10
2018-05-25T22:27:45.076Z,68.40
2018-05-25T22:30:14.552Z,68.60
2018-05-25T22:32:42.846Z,68.50
2018-05-25T22:35:11.107Z,69.00
2018-05-25T22:37:39.279Z,69.00
2018-05-25T22:40:07.763Z,69.20
2018-05-25T22:42:48.647Z,70.20
2018-05-25T22:45:29.453Z,70.80
2018-05-25T22:48:09.492Z,70.70
2018-05-25T22:50:49.557Z,71.00
2018-05-25T22:53:23.064Z,70.90
2018-05-25T22:55:51.296Z,71.00
2018-05-25T22:58:19.619Z,71.50
2018-05-25T23:00:47.857Z,71.90
2018-05-25T23:03:16.313Z,72.00
2018-05-25T23:05:45.290Z,72.30
2018-05-25T23:08:13.524Z,72.20
2018-05-25T23:10:41.753Z,72.20
2018-05-25T23:13:10.746Z,72.40
2018-05-25T23:15:38.951Z,72.30
2018-05-25T23:18:07.182Z,72.50
2018-05-25T23:20:36.896Z,72.50
2018-05-25T23:23:05.465Z,72.50
2018-05-25T23:25:33.679Z,72.60
2018-05-25T23:28:01.976Z,72.50
2018-05-25T23:30:30.191Z,72.30
2018-05-25T23:32:58.523Z,72.60
2018-05-25T23:35:26.796Z,72.50
2018-05-25T23:37:55.023Z,72.70
2018-05-25T23:40:23.232Z,72.70
2018-05-25T23:42:51.476Z,72.50
2018-05-25T23:45:21.369Z,72.80
2018-05-25T23:47:49.602Z,72.90
2018-05-25T23:50:17.805Z,73.30
2018-05-25T23:52:46.043Z,73.70
2018-05-25T23:55:15.053Z,74.20
2018-05-25T23:57:43.305Z,74.10
